Latest Coastal Weather Observations for Gove Airport

IDD60701

Issued at 8:31 pm CST Saturday 23 July 2016 (issued every 10 minutes, with the page automatically refreshed every 10 minutes)

About coastal observations | Map of coastal stations | Coastal observations for NT | Marine services | Other Formats
Station Details ID: 014508 Name: GOVE AIRPORT Lat: -12.27 Lon: 136.82 Height: 51.6 m
Data from the previous 72 hours. | See also: Recent months at Gove Airport
Date/Time
CST
Temp
°C
Wind Pressure Rain since
9am
mm
Weather Cloud Vis
km
Sea
Height
m
Swell
Dir  Spd
kts
Gust
kts
hPa Trend Height
m
Period
s
Dir
23/08:30pm 23.9 SSE 5 6 1011.7 - 0.0 - - 10 - - - -
23/08:00pm 24.2 SE 5 6 1011.6 - 0.0 - - 10 - - - -
23/07:30pm 24.6 SE 4 5 1011.3 - 0.0 - - 10 - - - -
23/07:00pm 25.0 SE 5 7 1010.9 - 0.0 - - 10 - - - -
23/06:30pm 25.6 SE 6 8 1010.7 - 0.0 - Partly cloudy 10 - - - -
23/06:00pm 26.4 SE 9 12 1010.6 F 0.0 - Partly cloudy 10 - - - -
23/05:30pm 27.2 SE 7 10 1010.3 - 0.0 - Partly cloudy 10 - - - -
23/05:00pm 27.4 SE 8 11 1009.9 - 0.0 - Partly cloudy 10 - - - -
23/04:30pm 28.1 ESE 12 15 1009.8 - 0.0 - Partly cloudy 10 - - - -
23/04:00pm 28.6 SE 12 17 1009.9 - 0.0 - Partly cloudy 10 - - - -
23/03:30pm 28.4 SE 12 17 1010.1 - 0.0 - Partly cloudy 10 - - - -
23/03:00pm 28.8 SE 12 19 1010.2 R 0.0 - Cloudy 10 - - - -
23/02:30pm 28.1 SE 13 17 1010.3 - 0.0 - Partly cloudy 10 - - - -
23/02:00pm 28.9 ESE 13 17 1010.6 - 0.0 - Partly cloudy 10 - - - -
23/01:30pm 28.8 ESE 14 19 1011.0 - 0.0 - Partly cloudy 10 - - - -
23/01:00pm 29.2 ESE 16 21 1011.4 - 0.0 - Partly cloudy 10 - - - -
23/12:30pm 29.3 ESE 13 19 1011.5 - 0.0 - Partly cloudy 10 - - - -
23/12:00pm 30.0 ESE 13 19 1011.8 F 0.0 - Cloudy 10 - - - -
23/11:30am 30.1 ESE 12 18 1012.0 - 0.0 - Partly cloudy 10 - - - -
23/11:00am 29.7 E 13 17 1012.3 - 0.0 - - 10 - - - -
23/10:30am 29.7 ESE 11 16 1012.3 - 0.0 - - 10 - - - -
23/10:00am 28.9 ESE 11 14 1012.6 - 0.0 - - 10 - - - -
23/09:30am 28.5 ESE 12 16 1012.8 - 0.0 - - 10 - - - -
23/09:00am 27.6 ESE 10 14 1012.9 F 0.0 - - 10 - - - -
23/08:30am 26.6 ESE 7 10 1012.7 - 0.0 - - 10 - - - -
23/08:00am 25.0 SE 5 6 1012.3 - 0.0 - - 10 - - - -
23/07:30am 23.8 SSE 6 7 1012.0 - 0.0 - - 10 - - - -
23/07:00am 22.5 SE 5 5 1012.0 - 0.0 - - 10 - - - -
23/06:30am 22.2 SSE 4 5 1012.0 - 0.0 - - 10 - - - -
23/06:00am 22.0 SE 1 5 1011.7 R 0.0 - - 10 - - - -
23/05:30am 22.1 CALM 0 0 1011.4 - 0.0 - - 10 - - - -
23/05:26am 22.0 CALM 0 0 1011.3 - 0.0 - - 10 - - - -
23/05:07am 22.0 CALM 0 0 1011.1 - 0.0 - - 5 - - - -
23/05:00am 22.2 CALM 0 0 1011.0 - 0.0 - - 10 - - - -
23/04:30am 22.3 CALM 0 0 1011.0 - 0.0 - - 10 - - - -
23/04:00am 23.1 SE 3 4 1011.1 - 0.0 - Cloudy 10 - - - -
23/03:30am 23.1 SSE 4 5 1011.0 - 0.0 - Partly cloudy 10 - - - -
23/03:00am 22.7 SE 4 4 1011.0 R 0.0 - - 10 - - - -
23/02:30am 23.1 SSE 4 5 1011.2 - 0.0 - - 10 - - - -
23/02:00am 23.1 SE 4 4 1011.3 - 0.0 - - 10 - - - -
23/01:30am 23.3 SE 4 5 1011.5 - 0.0 - - 10 - - - -
23/01:00am 23.7 SSE 4 5 1011.6 - 0.0 - Partly cloudy 10 - - - -
23/12:30am 23.9 SE 5 6 1011.8 - 0.0 - Partly cloudy 10 - - - -
23/12:00am 24.3 SSE 6 8 1011.7 F 0.0 - - 10 - - - -
 
Date/Time
CST
Temp
°C
Wind Pressure Rain since
9am
mm
Weather Cloud Vis
km
Sea
Height
m
Swell
Dir  Spd
kts
Gust
kts
hPa Trend Height
m
Period
s
Dir
22/11:30pm 24.4 SSE 6 11 1011.7 - 0.0 - - 10 - - - -
22/11:00pm 24.4 SSE 6 9 1011.9 - 0.0 - - 10 - - - -
22/10:30pm 24.6 SE 7 9 1012.1 - 0.0 - - 10 - - - -
22/10:00pm 24.5 SE 6 9 1012.1 - 0.0 - - 10 - - - -
22/09:30pm 24.5 SSE 6 8 1012.1 - 0.0 - - 10 - - - -
22/09:00pm 24.7 SSE 7 9 1012.0 F 0.0 - - 10 - - - -
22/08:30pm 24.9 SE 6 8 1011.8 - 0.0 - Partly cloudy 10 - - - -
22/08:00pm 25.0 SE 6 9 1011.6 - 0.0 - Partly cloudy 10 - - - -
22/07:30pm 25.1 SSE 6 8 1011.4 - 0.0 - Partly cloudy 10 - - - -
22/07:00pm 25.4 SE 6 9 1011.3 - 0.0 - Partly cloudy 10 - - - -
22/06:30pm 25.7 SE 7 11 1011.1 - 0.0 - Partly cloudy 10 - - - -
22/06:00pm 26.4 SE 10 14 1011.0 F 0.0 - Cloudy 10 - - - -
22/05:30pm 27.0 ESE 11 16 1010.9 - 0.0 - Partly cloudy 10 - - - -
22/05:00pm 27.2 ESE 12 16 1010.8 - 0.0 - Partly cloudy 10 - - - -
22/04:30pm 28.9 ESE 13 19 1010.6 - 0.0 - Partly cloudy 10 - - - -
22/04:00pm 28.8 ESE 11 16 1010.5 - 0.0 - Partly cloudy 10 - - - -
22/03:30pm 29.6 ESE 13 19 1010.5 - 0.0 - Partly cloudy 10 - - - -
22/03:00pm 29.6 E 15 18 1010.7 S 0.0 - Mostly clear 10 - - - -
22/02:30pm 29.0 ESE 13 18 1010.9 - 0.0 - Partly cloudy 10 - - - -
22/02:00pm 29.2 ESE 13 18 1011.1 - 0.0 - Partly cloudy 10 - - - -
22/01:30pm 29.4 E 15 18 1011.6 - 0.0 - Partly cloudy 10 - - - -
22/01:00pm 29.0 ESE 13 17 1011.9 - 0.0 - Partly cloudy 10 - - - -
22/12:30pm 29.5 ESE 14 19 1012.3 - 0.0 - Partly cloudy 10 - - - -
22/12:00pm 29.7 ESE 14 19 1012.6 F 0.0 - Mostly clear 10 - - - -
22/11:30am 29.4 ESE 13 20 1012.9 - 0.0 - Partly cloudy 10 - - - -
22/11:00am 28.3 ESE 14 17 1013.4 - 0.0 - Partly cloudy 10 - - - -
22/10:30am 28.4 ESE 14 18 1013.7 - 0.0 - Partly cloudy 10 - - - -
22/10:00am 27.9 ESE 12 16 1013.8 - 0.0 - Partly cloudy 10 - - - -
22/09:30am 26.9 ESE 12 17 1014.0 - 0.0 - Partly cloudy 10 - - - -
22/09:00am 27.7 ESE 11 14 1013.9 R 0.0 - Mostly cloudy 10 - - - -
22/08:46am 26.5 ESE 10 14 1013.7 - 0.0 - Partly cloudy 10 - - - -
22/08:30am 25.7 SE 9 13 1013.6 - 0.0 - Partly cloudy 10 - - - -
22/08:13am 25.4 SE 8 11 1013.4 - 0.0 - Partly cloudy 10 - - - -
22/08:00am 24.8 SE 5 6 1013.4 - 0.0 - Mostly clear 10 - - - -
22/07:30am 23.5 SE 5 6 1013.1 - 0.0 - Partly cloudy 10 - - - -
22/07:00am 23.0 SSE 5 6 1012.8 - 0.0 - Partly cloudy 10 - - - -
22/06:30am 22.8 SSE 5 5 1012.5 - 0.0 - Partly cloudy 10 - - - -
22/06:00am 22.8 SSE 5 6 1012.2 S 0.0 - Partly cloudy 10 - - - -
22/05:30am 22.6 SSE 5 6 1012.0 - 0.0 - Partly cloudy 10 - - - -
22/05:00am 22.4 SE 5 5 1011.8 - 0.0 - Partly cloudy 10 - - - -
22/04:30am 22.0 SSE 4 5 1011.7 - 0.0 - Partly cloudy 10 - - - -
22/04:00am 22.1 SSE 3 4 1011.4 - 0.0 - - 10 - - - -
22/03:30am 22.5 S 3 5 1011.6 - 0.0 - - 10 - - - -
22/03:00am 22.9 SSE 5 6 1011.9 S 0.0 - - 10 - - - -
22/02:30am 22.9 SE 5 6 1012.1 - 0.0 - - 10 - - - -
22/02:00am 23.1 SSE 4 5 1012.2 - 0.0 - - 10 - - - -
22/01:30am 23.5 SSE 6 7 1012.4 - 0.0 - - 10 - - - -
22/01:00am 23.5 SSE 6 8 1012.5 - 0.0 - - 10 - - - -
22/12:30am 23.8 SE 5 7 1012.9 - 0.0 - - 10 - - - -
22/12:00am 24.1 SSE 6 8 1013.0 R 0.0 - - 10 - - - -
 
Date/Time
CST
Temp
°C
Wind Pressure Rain since
9am
mm
Weather Cloud Vis
km
Sea
Height
m
Swell
Dir  Spd
kts
Gust
kts
hPa Trend Height
m
Period
s
Dir
21/11:30pm 24.1 SE 5 7 1013.1 - 0.0 - Partly cloudy 10 - - - -
21/11:00pm 24.0 SE 4 5 1013.2 - 0.0 - Partly cloudy 10 - - - -
21/10:30pm 24.0 SE 5 6 1013.0 - 0.0 - Partly cloudy 10 - - - -
21/10:00pm 24.4 SE 6 8 1012.9 - 0.0 - - 10 - - - -
21/09:30pm 24.6 SE 7 9 1012.6 - 0.0 - Partly cloudy 10 - - - -
21/09:00pm 24.6 SE 6 8 1012.4 F 0.0 - Mostly clear 10 - - - -
21/08:30pm 25.0 SE 7 11 1012.2 - 0.0 - Partly cloudy 10 - - - -
21/08:00pm 24.8 SSE 6 9 1012.2 - 0.0 - Partly cloudy 10 - - - -
21/07:30pm 25.0 SE 7 9 1012.0 - 0.0 - Partly cloudy 10 - - - -
21/07:00pm 25.3 SE 7 11 1011.7 - 0.0 - Partly cloudy 10 - - - -
21/06:41pm 25.4 SE 8 14 1011.5 - 0.0 - Partly cloudy 10 - - - -
21/06:30pm 25.6 SE 9 15 1011.3 - 0.0 - Partly cloudy 10 - - - -
21/06:23pm 25.7 SE 7 11 1011.2 - 0.0 - Partly cloudy 10 - - - -
21/06:00pm 25.9 SE 7 11 1011.0 F 0.0 - Mostly clear 10 - - - -
21/05:30pm 26.3 SE 11 14 1010.9 - 0.0 - Partly cloudy 10 - - - -
21/05:00pm 26.8 SE 9 13 1010.9 - 0.0 - Partly cloudy 10 - - - -
21/04:30pm 26.1 SE 11 17 1010.8 - 0.0 - Partly cloudy 10 - - - -
21/04:00pm 27.9 SE 11 15 1010.7 - 0.0 - Partly cloudy 10 - - - -
21/03:30pm 29.0 SE 11 17 1010.7 - 0.0 - Partly cloudy 10 - - - -
21/03:00pm 28.2 SE 11 18 1011.0 R 0.0 - Cloudy 10 - - - -
21/02:30pm 28.9 SE 13 18 1011.1 - 0.0 - Partly cloudy 10 - - - -
21/02:00pm 29.4 ESE 14 18 1011.5 - 0.0 - Partly cloudy 10 - - - -
21/01:30pm 28.8 ESE 13 19 1011.9 - 0.0 - Mostly clear 10 - - - -
21/01:00pm 28.0 SE 14 20 1012.1 - 0.0 - Partly cloudy 10 - - - -
21/12:30pm 29.2 SE 14 18 1012.5 - 0.0 - Mostly cloudy 10 - - - -
21/12:00pm 28.8 ESE 14 19 1012.8 F 0.0 - Cloudy 10 - - - -
21/11:30am 27.3 SE 13 18 1013.1 - 0.0 - Mostly cloudy 10 - - - -
21/11:00am 27.5 SE 13 20 1013.6 - 0.0 - Partly cloudy 10 - - - -
21/10:30am 27.6 SE 12 17 1013.9 - 0.0 - Mostly cloudy 10 - - - -
21/10:00am 27.1 SE 10 14 1014.1 - 0.0 - Mostly cloudy 10 - - - -
21/09:59am 26.9 SE 10 14 1014.1 - 0.0 - Mostly cloudy 10 - - - -
21/09:30am 26.6 SSE 8 13 1014.1 - 0.0 - Partly cloudy 10 - - - -
21/09:00am 25.2 ESE 7 9 1014.1 F 0.0 - Cloudy 10 - - - -
21/08:42am 25.5 SE 8 12 1013.8 - 0.0 Showers Partly cloudy 10 - - - -
21/08:30am 25.4 SSE 7 10 1013.7 - 0.0 - Partly cloudy 10 - - - -
21/08:00am 24.7 SSE 5 7 1013.5 - 0.0 - Mostly clear 10 - - - -
21/07:30am 23.8 SSE 5 7 1013.3 - 0.0 - Partly cloudy 10 - - - -
21/07:00am 23.2 SSE 4 6 1013.2 - 0.0 - Partly cloudy 10 - - - -
21/06:30am 23.2 SSE 5 6 1013.1 - 0.0 - Partly cloudy 10 - - - -
21/06:00am 23.0 SE 5 6 1012.8 R 0.0 - Partly cloudy 10 - - - -
21/05:30am 23.0 SE 5 6 1012.5 - 0.0 - Partly cloudy 10 - - - -
21/05:00am 23.0 SE 4 6 1012.4 - 0.0 - Partly cloudy 10 - - - -
21/04:30am 23.0 SSE 4 6 1012.1 - 0.0 - - 10 - - - -
21/04:00am 23.3 SSE 5 6 1012.0 - 0.0 - - 10 - - - -
21/03:30am 23.4 SE 5 7 1011.9 - 0.0 - Partly cloudy 10 - - - -
21/03:00am 23.5 SSE 6 8 1012.0 F 0.0 - - 10 - - - -
21/02:30am 23.5 SSE 7 9 1012.2 - 0.0 - Partly cloudy 10 - - - -
21/02:00am 23.8 SSE 7 10 1012.5 - 0.0 - Partly cloudy 10 - - - -
21/01:39am 23.9 SSE 7 10 1012.7 - 0.0 - Partly cloudy 10 - - - -
21/01:30am 23.9 SSE 6 9 1012.8 - 0.0 - Partly cloudy 10 - - - -
21/01:23am 23.9 SSE 7 9 1012.9 - 0.0 - Partly cloudy 10 - - - -
21/01:00am 24.0 SSE 7 11 1013.1 - 0.0 - Partly cloudy 10 - - - -
21/12:30am 24.1 SSE 7 10 1013.2 - 0.0 - - 10 - - - -
21/12:00am 24.2 SSE 7 10 1013.5 R 0.0 - Mostly clear 10 - - - -
 
Date/Time
CST
Temp
°C
Wind Pressure Rain since
9am
mm
Weather Cloud Vis
km
Sea
Height
m
Swell
Dir  Spd
kts
Gust
kts
hPa Trend Height
m
Period
s
Dir
20/11:30pm 24.1 SE 6 8 1013.7 - 0.0 - Partly cloudy 10 - - - -
20/11:00pm 24.4 SSE 7 11 1013.8 - 0.0 - Partly cloudy 10 - - - -
20/10:30pm 24.4 SSE 6 9 1013.8 - 0.0 - Cloudy 10 - - - -
20/10:00pm 24.0 SSE 5 7 1013.7 - 0.0 - Cloudy 10 - - - -
20/09:30pm 24.0 SSE 5 8 1013.6 - 0.0 - Partly cloudy 10 - - - -
20/09:00pm 24.1 SE 6 9 1013.4 S 0.0 - - 10 - - - -

Other Formats:

Comma delimited format used in spreadsheet applications
http://www.bom.gov.au/fwo/IDD60701/IDD60701.94150.axf

JavaScript Object Notation format (JSON) in row-major order
http://www.bom.gov.au/fwo/IDD60701/IDD60701.94150.json